createdAt,value
2023-04-28T00:00:20.786Z,6.15
2023-04-28T00:02:27.367Z,6.85
2023-04-28T00:04:32.631Z,6.55
2023-04-28T00:06:37.701Z,7.15
2023-04-28T00:08:42.832Z,7.63
2023-04-28T00:10:50.511Z,6.88
2023-04-28T00:12:55.466Z,7.15
2023-04-28T00:15:00.421Z,7.32
2023-04-28T00:17:05.374Z,8.25
2023-04-28T00:19:10.506Z,7.20
2023-04-28T00:21:15.464Z,6.55
2023-04-28T00:23:20.955Z,6.50
2023-04-28T00:25:26.007Z,6.60
2023-04-28T00:27:35.652Z,6.35
2023-04-28T00:29:40.598Z,6.25
2023-04-28T00:31:45.986Z,6.40
2023-04-28T00:33:50.944Z,6.47
2023-04-28T00:36:02.847Z,6.18
2023-04-28T00:38:09.988Z,6.15
2023-04-28T00:40:16.071Z,6.22
2023-04-28T00:42:21.271Z,6.05
2023-04-28T00:44:28.816Z,6.10
2023-04-28T00:46:36.175Z,6.28
2023-04-28T00:48:41.934Z,6.57
2023-04-28T00:50:47.415Z,5.38
2023-04-28T00:52:52.989Z,5.40
2023-04-28T00:54:58.252Z,6.20
2023-04-28T00:57:05.219Z,5.90
2023-04-28T00:59:10.333Z,5.70
2023-04-28T01:01:18.329Z,5.93
2023-04-28T01:03:23.779Z,6.13
2023-04-28T01:05:29.777Z,6.68
2023-04-28T01:07:35.509Z,5.90
2023-04-28T01:09:42.392Z,6.32
2023-04-28T01:11:48.301Z,6.63
2023-04-28T01:14:04.805Z,5.88
2023-04-28T01:16:14.194Z,6.28
2023-04-28T01:18:22.160Z,5.72
2023-04-28T01:20:27.245Z,6.50
2023-04-28T01:22:32.828Z,7.10
2023-04-28T01:24:40.848Z,6.90
2023-04-28T01:26:47.399Z,6.10
2023-04-28T01:28:52.681Z,6.05
2023-04-28T01:30:58.284Z,6.38
2023-04-28T01:33:03.311Z,7.43
2023-04-28T01:35:09.639Z,6.50
2023-04-28T01:37:15.097Z,6.80
2023-04-28T01:39:20.506Z,6.68
2023-04-28T01:41:28.416Z,7.05
2023-04-28T01:43:33.825Z,7.40
2023-04-28T01:45:38.840Z,6.93
2023-04-28T01:47:44.204Z,7.50
2023-04-28T01:49:51.595Z,7.75
2023-04-28T01:51:56.564Z,8.57
2023-04-28T01:54:02.327Z,9.10
2023-04-28T01:56:08.547Z,7.72
2023-04-28T01:58:16.372Z,6.95
2023-04-28T02:00:23.478Z,7.70
2023-04-28T02:02:29.705Z,8.32
2023-04-28T02:04:35.822Z,7.93
2023-04-28T02:06:41.299Z,8.93
2023-04-28T02:08:46.958Z,8.90
2023-04-28T02:10:52.301Z,8.07
2023-04-28T02:12:57.433Z,8.02
2023-04-28T02:15:05.546Z,8.18
2023-04-28T02:17:10.692Z,7.50
2023-04-28T02:19:15.991Z,8.52
2023-04-28T02:21:21.657Z,8.63
2023-04-28T02:23:26.752Z,8.10
2023-04-28T02:25:32.489Z,7.75
2023-04-28T02:27:39.778Z,7.88
2023-04-28T02:29:44.907Z,9.60
2023-04-28T02:31:52.661Z,7.80
2023-04-28T02:33:57.817Z,8.05
2023-04-28T02:36:03.279Z,8.18
2023-04-28T02:38:08.839Z,7.95
2023-04-28T02:40:16.616Z,8.13
2023-04-28T02:42:22.114Z,7.30
2023-04-28T02:44:27.519Z,8.25
2023-04-28T02:46:32.789Z,8.23
2023-04-28T02:48:41.500Z,8.90
2023-04-28T02:50:46.582Z,8.07
2023-04-28T02:52:51.901Z,8.00
2023-04-28T02:54:57.868Z,8.50
2023-04-28T02:57:04.693Z,9.55
2023-04-28T02:59:10.141Z,7.78
2023-04-28T03:01:15.698Z,7.88
2023-04-28T03:03:21.046Z,9.35
2023-04-28T03:05:29.160Z,9.20
2023-04-28T03:07:34.311Z,9.18
2023-04-28T03:09:42.140Z,9.50
2023-04-28T03:11:47.477Z,8.88
2023-04-28T03:13:53.107Z,9.70
2023-04-28T03:15:59.921Z,8.95
2023-04-28T03:18:06.723Z,8.82
2023-04-28T03:20:14.156Z,8.70
2023-04-28T03:22:21.881Z,9.02
2023-04-28T03:24:27.509Z,8.25
2023-04-28T03:26:32.626Z,8.13
2023-04-28T03:28:38.685Z,8.48
2023-04-28T03:30:43.897Z,7.63
2023-04-28T03:32:49.052Z,8.23
2023-04-28T03:34:54.676Z,8.13
2023-04-28T03:36:59.763Z,8.35
2023-04-28T03:39:10.904Z,7.82
2023-04-28T03:41:16.031Z,7.70
2023-04-28T03:43:40.512Z,8.60
2023-04-28T03:45:55.045Z,8.68
2023-04-28T03:48:00.197Z,8.88
2023-04-28T03:50:05.377Z,8.73
2023-04-28T03:52:10.812Z,8.45
2023-04-28T03:54:18.596Z,8.90
2023-04-28T03:56:24.778Z,8.70
2023-04-28T03:58:30.325Z,9.10
2023-04-28T04:00:35.404Z,8.32
2023-04-28T04:02:41.626Z,8.50
2023-04-28T04:04:47.250Z,8.93
2023-04-28T04:06:52.889Z,8.48
2023-04-28T04:08:58.328Z,8.95
2023-04-28T04:11:06.640Z,8.82
2023-04-28T04:13:11.774Z,9.35
2023-04-28T04:15:17.895Z,9.10
2023-04-28T04:17:25.037Z,9.40
2023-04-28T04:19:30.589Z,9.15
2023-04-28T04:21:36.247Z,9.95
2023-04-28T04:23:41.383Z,10.57
2023-04-28T04:25:46.526Z,10.00
2023-04-28T04:27:54.331Z,9.68
2023-04-28T04:29:59.793Z,9.75
2023-04-28T04:32:05.285Z,9.88
2023-04-28T04:34:11.493Z,10.80
2023-04-28T04:36:16.601Z,10.70
2023-04-28T04:38:21.710Z,10.15
2023-04-28T04:40:27.584Z,9.00
2023-04-28T04:42:33.700Z,10.38
2023-04-28T04:44:49.085Z,10.80
2023-04-28T04:47:04.589Z,10.73
2023-04-28T04:49:11.746Z,9.90
2023-04-28T04:51:17.055Z,11.05
2023-04-28T04:53:22.200Z,12.35
2023-04-28T04:55:28.666Z,12.05
2023-04-28T04:57:33.974Z,12.57
2023-04-28T04:59:58.191Z,13.00
2023-04-28T05:02:03.617Z,13.77
2023-04-28T05:04:09.135Z,12.90
2023-04-28T05:06:14.711Z,13.23
2023-04-28T05:08:26.878Z,13.32
2023-04-28T05:10:32.934Z,13.05
2023-04-28T05:12:41.125Z,13.80
2023-04-28T05:14:46.247Z,13.50
2023-04-28T05:16:57.215Z,13.57
2023-04-28T05:19:05.467Z,13.73
2023-04-28T05:21:13.227Z,14.00
2023-04-28T05:23:18.544Z,14.40
2023-04-28T05:25:23.635Z,14.23
2023-04-28T05:27:29.221Z,13.40
2023-04-28T05:29:34.582Z,15.93
2023-04-28T05:31:39.981Z,15.52
2023-04-28T05:33:48.126Z,14.23
2023-04-28T05:35:53.628Z,13.90
2023-04-28T05:37:58.744Z,14.30
2023-04-28T05:40:04.052Z,15.05
2023-04-28T05:42:10.733Z,14.55
2023-04-28T05:44:16.176Z,14.98
2023-04-28T05:46:30.611Z,14.85
2023-04-28T05:48:37.748Z,13.70
2023-04-28T05:50:46.041Z,13.70
2023-04-28T05:52:54.018Z,13.07
2023-04-28T05:54:59.153Z,14.20
2023-04-28T05:57:05.547Z,13.35
2023-04-28T05:59:11.303Z,14.02
2023-04-28T06:01:17.523Z,13.48
2023-04-28T06:03:23.630Z,13.95
2023-04-28T06:05:30.183Z,13.45
2023-04-28T06:07:38.744Z,13.18
2023-04-28T06:09:43.827Z,13.48
2023-04-28T06:11:48.923Z,12.73
2023-04-28T06:13:54.266Z,12.52
2023-04-28T06:16:00.393Z,13.52
2023-04-28T06:18:06.343Z,13.18
2023-04-28T06:20:14.137Z,13.20
2023-04-28T06:22:19.785Z,13.73
2023-04-28T06:24:28.282Z,12.52
2023-04-28T06:26:35.612Z,12.38
2023-04-28T06:28:41.909Z,11.23
2023-04-28T06:30:47.629Z,12.07
2023-04-28T06:32:52.894Z,11.65
2023-04-28T06:34:58.757Z,12.43
2023-04-28T06:37:05.099Z,11.43
2023-04-28T06:39:10.852Z,12.15
2023-04-28T06:41:18.584Z,11.90
2023-04-28T06:43:27.516Z,11.25
2023-04-28T06:45:44.621Z,13.05
2023-04-28T06:47:49.901Z,11.77
2023-04-28T06:49:55.468Z,11.27
2023-04-28T06:52:00.761Z,10.05
2023-04-28T06:54:08.743Z,11.32
2023-04-28T06:56:14.270Z,10.77
2023-04-28T06:58:22.323Z,10.60
2023-04-28T07:00:27.953Z,9.55
2023-04-28T07:02:33.487Z,11.07
2023-04-28T07:04:38.757Z,10.60
2023-04-28T07:06:46.195Z,11.48
2023-04-28T07:08:51.881Z,11.18
2023-04-28T07:10:58.381Z,11.65
2023-04-28T07:13:03.437Z,11.82
2023-04-28T07:15:12.895Z,11.75
2023-04-28T07:17:18.098Z,13.00
2023-04-28T07:19:23.206Z,12.55
2023-04-28T07:21:29.252Z,13.82
2023-04-28T07:23:34.587Z,12.20
2023-04-28T07:25:40.938Z,12.63
2023-04-28T07:27:47.755Z,11.07
2023-04-28T07:29:52.899Z,12.32
2023-04-28T07:32:01.594Z,11.60
2023-04-28T07:34:06.727Z,11.18
2023-04-28T07:36:12.046Z,12.55
2023-04-28T07:38:18.976Z,12.80
2023-04-28T07:40:24.859Z,11.77
2023-04-28T07:42:30.498Z,11.80
2023-04-28T07:44:36.195Z,12.85
2023-04-28T07:46:41.293Z,12.85
2023-04-28T07:48:49.843Z,12.48
2023-04-28T07:50:55.330Z,12.40
2023-04-28T07:53:01.714Z,13.18
2023-04-28T07:55:07.733Z,13.35
2023-04-28T07:57:13.256Z,11.93
2023-04-28T07:59:18.422Z,12.88
2023-04-28T08:01:24.163Z,12.40
2023-04-28T08:03:29.437Z,11.48
2023-04-28T08:05:38.335Z,12.02
2023-04-28T08:07:43.438Z,11.85
2023-04-28T08:09:49.838Z,12.82
2023-04-28T08:11:55.672Z,12.90
2023-04-28T08:14:03.200Z,12.50
2023-04-28T08:16:09.746Z,11.88
2023-04-28T08:18:15.131Z,11.27
2023-04-28T08:20:24.464Z,10.75
2023-04-28T08:22:32.631Z,11.10
2023-04-28T08:24:38.002Z,10.98
2023-04-28T08:26:43.166Z,11.40
2023-04-28T08:28:48.306Z,11.60
2023-04-28T08:30:55.662Z,11.25
2023-04-28T08:33:01.245Z,11.98
2023-04-28T08:35:06.692Z,11.15
2023-04-28T08:37:11.863Z,11.43
2023-04-28T08:39:20.092Z,12.57
2023-04-28T08:41:26.382Z,12.90
2023-04-28T08:43:31.716Z,12.90
2023-04-28T08:45:45.848Z,12.68
2023-04-28T08:47:54.376Z,13.35
2023-04-28T08:50:05.381Z,13.10
2023-04-28T08:52:15.147Z,12.80
2023-04-28T08:54:26.886Z,13.05
2023-04-28T08:56:36.832Z,12.90
2023-04-28T08:58:43.112Z,12.43
2023-04-28T09:00:48.485Z,12.63
2023-04-28T09:02:54.078Z,12.65
2023-04-28T09:04:59.652Z,11.65
2023-04-28T09:07:05.080Z,12.10
2023-04-28T09:09:28.392Z,12.02
2023-04-28T09:11:34.965Z,13.48
2023-04-28T09:13:40.475Z,12.05
2023-04-28T09:15:45.788Z,12.38
2023-04-28T09:17:52.754Z,12.90
2023-04-28T09:19:57.937Z,12.07
2023-04-28T09:22:13.795Z,12.95
2023-04-28T09:24:39.990Z,12.38
2023-04-28T09:26:55.358Z,12.65
2023-04-28T09:29:15.877Z,12.82
2023-04-28T09:31:28.934Z,12.25
2023-04-28T09:33:34.493Z,12.45
2023-04-28T09:35:45.727Z,11.07
2023-04-28T09:37:50.920Z,11.75
2023-04-28T09:39:59.688Z,11.52
2023-04-28T09:42:05.483Z,10.32
2023-04-28T09:44:19.461Z,10.35
2023-04-28T09:46:32.644Z,11.57
2023-04-28T09:48:39.417Z,11.07
2023-04-28T09:50:44.494Z,10.38
2023-04-28T09:53:00.288Z,10.30
2023-04-28T09:55:12.215Z,10.30
2023-04-28T09:57:18.775Z,10.60
2023-04-28T09:59:23.957Z,9.57
2023-04-28T10:01:30.334Z,9.90
2023-04-28T10:03:35.579Z,11.10
2023-04-28T10:05:41.402Z,9.93
2023-04-28T10:07:46.831Z,10.18
2023-04-28T10:09:53.549Z,9.38
2023-04-28T10:12:01.548Z,9.98
2023-04-28T10:14:06.856Z,10.23
2023-04-28T10:16:13.152Z,9.52
2023-04-28T10:18:19.839Z,8.70
2023-04-28T10:20:26.344Z,9.15
2023-04-28T10:22:55.618Z,9.32
2023-04-28T10:25:28.307Z,10.40
2023-04-28T10:27:37.397Z,9.95
2023-04-28T10:29:42.627Z,9.68
2023-04-28T10:32:26.571Z,9.07
2023-04-28T10:34:31.761Z,8.60
2023-04-28T10:36:55.887Z,8.65
2023-04-28T10:39:15.426Z,8.57
2023-04-28T10:41:35.480Z,7.97
2023-04-28T10:43:43.398Z,8.10
2023-04-28T10:46:11.560Z,7.50
2023-04-28T10:48:17.241Z,7.05
2023-04-28T10:50:29.326Z,5.90
2023-04-28T10:52:53.323Z,6.78
2023-04-28T10:55:36.736Z,4.95
2023-04-28T10:57:41.833Z,4.78
2023-04-28T10:59:50.513Z,5.20
2023-04-28T11:01:56.099Z,4.43
2023-04-28T11:04:05.021Z,3.83
2023-04-28T11:06:32.632Z,3.75
2023-04-28T11:08:37.873Z,3.30
2023-04-28T11:11:24.535Z,3.15
2023-04-28T11:13:34.446Z,3.70
2023-04-28T11:15:43.004Z,3.70
2023-04-28T11:17:50.355Z,3.15
2023-04-28T11:19:58.477Z,3.13
2023-04-28T11:22:09.977Z,3.50
2023-04-28T11:24:15.662Z,2.90
2023-04-28T11:26:23.860Z,2.83
2023-04-28T11:28:29.339Z,3.28
2023-04-28T11:30:34.403Z,3.42
2023-04-28T11:32:42.106Z,3.58
2023-04-28T11:34:55.008Z,3.53
2023-04-28T11:39:57.667Z,3.53
2023-04-28T11:42:04.998Z,2.97
2023-04-28T11:44:14.780Z,3.42
2023-04-28T11:46:22.253Z,3.28
2023-04-28T11:48:29.878Z,3.50
2023-04-28T11:50:41.722Z,3.17
2023-04-28T11:52:53.874Z,3.40
2023-04-28T11:55:02.625Z,2.97
2023-04-28T11:57:08.609Z,3.47
2023-04-28T11:59:15.923Z,3.38
2023-04-28T12:01:21.193Z,3.05
2023-04-28T12:03:28.986Z,3.15
2023-04-28T12:05:38.858Z,3.00
2023-04-28T12:07:46.061Z,2.95
2023-04-28T12:10:13.263Z,3.30
2023-04-28T12:14:59.632Z,3.60
2023-04-28T12:17:05.011Z,3.80
2023-04-28T12:19:13.229Z,3.58
2023-04-28T12:21:25.146Z,3.83
2023-04-28T12:23:34.894Z,4.10
2023-04-28T12:25:48.392Z,3.90
2023-04-28T12:28:03.571Z,3.90
2023-04-28T12:30:27.829Z,3.85
2023-04-28T12:32:44.514Z,4.65
2023-04-28T12:34:52.621Z,5.20
2023-04-28T12:36:57.921Z,4.80
2023-04-28T12:39:03.051Z,4.85
2023-04-28T12:41:08.494Z,5.28
2023-04-28T12:43:13.738Z,5.57
2023-04-28T12:45:19.154Z,5.07
2023-04-28T12:47:24.662Z,5.10
2023-04-28T12:49:30.983Z,5.95
2023-04-28T12:51:40.055Z,5.80
2023-04-28T12:53:45.052Z,6.20
2023-04-28T12:55:50.467Z,5.53
2023-04-28T12:57:55.584Z,6.80
2023-04-28T13:00:00.648Z,6.32
2023-04-28T13:02:05.697Z,6.28
2023-04-28T13:04:11.064Z,6.47
2023-04-28T13:06:16.381Z,6.57
2023-04-28T13:08:24.238Z,6.65
2023-04-28T13:10:29.867Z,6.93
2023-04-28T13:12:35.585Z,7.03
2023-04-28T13:14:40.648Z,7.10
2023-04-28T13:16:46.173Z,7.38
2023-04-28T13:18:52.289Z,6.80
2023-04-28T13:20:57.443Z,6.55
2023-04-28T13:23:02.704Z,6.22
2023-04-28T13:25:12.151Z,6.63
2023-04-28T13:27:17.528Z,6.63
2023-04-28T13:29:22.715Z,6.25
2023-04-28T13:31:28.106Z,6.32
2023-04-28T13:33:34.262Z,6.93
2023-04-28T13:35:39.690Z,6.78
2023-04-28T13:37:46.282Z,6.38
2023-04-28T13:39:51.293Z,6.20
2023-04-28T13:41:59.037Z,5.85
2023-04-28T13:44:04.365Z,6.18
2023-04-28T13:46:09.781Z,5.75
2023-04-28T13:48:15.152Z,6.13
2023-04-28T13:50:20.384Z,7.00
2023-04-28T13:52:25.450Z,6.50
2023-04-28T13:54:31.205Z,7.05
2023-04-28T13:56:38.058Z,6.70
2023-04-28T13:58:45.662Z,7.55
2023-04-28T14:00:50.736Z,7.68
2023-04-28T14:02:56.342Z,6.95
2023-04-28T14:05:01.443Z,8.07
2023-04-28T14:07:06.562Z,7.35
2023-04-28T14:09:11.757Z,6.50
2023-04-28T14:11:16.812Z,7.05
2023-04-28T14:13:22.652Z,7.72
2023-04-28T14:15:30.508Z,6.32
2023-04-28T14:17:36.759Z,7.07
2023-04-28T14:19:42.180Z,6.22
2023-04-28T14:21:47.917Z,7.60
2023-04-28T14:23:53.199Z,6.75
2023-04-28T14:25:58.437Z,7.35
2023-04-28T14:28:03.724Z,7.20
2023-04-28T14:30:11.568Z,7.13
2023-04-28T14:32:21.386Z,6.53
2023-04-28T14:34:26.459Z,7.45
2023-04-28T14:36:31.501Z,6.60
2023-04-28T14:38:38.384Z,5.75
2023-04-28T14:40:45.719Z,6.13
2023-04-28T14:42:50.827Z,7.00
2023-04-28T14:44:56.145Z,6.25
2023-04-28T14:47:01.577Z,6.53
2023-04-28T14:49:09.667Z,7.03
2023-04-28T14:51:14.710Z,7.10
2023-04-28T14:53:19.904Z,6.72
2023-04-28T14:55:24.920Z,6.32
2023-04-28T14:57:30.510Z,6.85
2023-04-28T14:59:36.084Z,6.63
2023-04-28T15:01:41.633Z,5.82
2023-04-28T15:03:46.873Z,5.68
2023-04-28T15:05:56.111Z,6.22
2023-04-28T15:08:01.524Z,7.13
2023-04-28T15:10:06.906Z,6.32
2023-04-28T15:12:11.971Z,6.55
2023-04-28T15:14:17.324Z,6.05
2023-04-28T15:16:22.462Z,6.93
2023-04-28T15:18:27.910Z,7.15
2023-04-28T15:20:34.554Z,7.03
2023-04-28T15:22:44.593Z,7.32
2023-04-28T15:24:50.088Z,7.32
2023-04-28T15:26:55.392Z,7.78
2023-04-28T15:29:00.965Z,8.95
2023-04-28T15:31:06.023Z,8.30
2023-04-28T15:33:17.292Z,7.57
2023-04-28T15:35:22.959Z,7.80
2023-04-28T15:37:48.086Z,8.07
2023-04-28T15:39:53.502Z,9.45
2023-04-28T15:41:59.684Z,8.93
2023-04-28T15:44:05.141Z,8.65
2023-04-28T15:46:11.353Z,9.18
2023-04-28T15:48:16.782Z,8.82
2023-04-28T15:50:22.756Z,7.80
2023-04-28T15:52:28.150Z,8.65
2023-04-28T15:54:36.016Z,7.72
2023-04-28T15:56:41.267Z,8.52
2023-04-28T15:58:47.568Z,7.63
2023-04-28T16:00:52.967Z,7.53
2023-04-28T16:02:58.126Z,7.47
2023-04-28T16:05:04.711Z,6.93
2023-04-28T16:07:10.349Z,6.68
2023-04-28T16:09:15.513Z,5.45
2023-04-28T16:11:23.745Z,5.15
2023-04-28T16:13:32.726Z,5.70
2023-04-28T16:15:37.949Z,4.97
2023-04-28T16:17:44.596Z,5.05
2023-04-28T16:19:49.864Z,5.38
2023-04-28T16:21:54.945Z,5.13
2023-04-28T16:23:59.972Z,4.47
2023-04-28T16:26:04.998Z,4.78
2023-04-28T16:28:12.629Z,4.75
2023-04-28T16:30:18.120Z,5.00
2023-04-28T16:32:23.201Z,4.63
2023-04-28T16:34:28.286Z,4.68
2023-04-28T16:36:35.353Z,3.80
2023-04-28T16:38:41.208Z,4.22
2023-04-28T16:40:46.198Z,4.57
2023-04-28T16:42:51.294Z,4.10
2023-04-28T16:44:59.936Z,4.32
2023-04-28T16:47:05.525Z,4.25
2023-04-28T16:49:11.481Z,4.88
2023-04-28T16:51:16.602Z,5.28
2023-04-28T16:53:21.820Z,5.88
2023-04-28T16:55:26.962Z,4.68
2023-04-28T16:57:32.392Z,5.40
2023-04-28T16:59:37.564Z,5.18
2023-04-28T17:01:45.719Z,4.95
2023-04-28T17:03:53.142Z,5.47
2023-04-28T17:05:59.714Z,5.72
2023-04-28T17:08:04.737Z,5.88
2023-04-28T17:10:11.669Z,5.90
2023-04-28T17:12:18.018Z,6.20
2023-04-28T17:14:23.053Z,5.30
2023-04-28T17:16:28.359Z,5.63
2023-04-28T17:18:36.807Z,5.47
2023-04-28T17:20:43.143Z,6.13
2023-04-28T17:22:48.767Z,5.60
2023-04-28T17:24:53.787Z,6.72
2023-04-28T17:26:59.416Z,6.05
2023-04-28T17:29:04.954Z,6.15
2023-04-28T17:31:10.083Z,6.43
2023-04-28T17:33:15.302Z,6.78
2023-04-28T17:35:23.243Z,7.18
2023-04-28T17:37:28.915Z,6.88
2023-04-28T17:39:33.974Z,7.50
2023-04-28T17:41:39.244Z,6.88
2023-04-28T17:43:44.261Z,7.20
2023-04-28T17:45:49.284Z,7.93
2023-04-28T17:47:54.328Z,7.03
2023-04-28T17:49:59.611Z,6.53
2023-04-28T17:52:07.272Z,6.07
2023-04-28T17:54:12.273Z,7.03
2023-04-28T17:56:17.800Z,6.93
2023-04-28T17:58:23.748Z,7.95
2023-04-28T18:00:28.748Z,7.68
2023-04-28T18:02:34.527Z,7.30
2023-04-28T18:04:39.648Z,9.50
2023-04-28T18:06:44.982Z,10.18
2023-04-28T18:08:52.619Z,9.18
2023-04-28T18:10:57.655Z,9.23
2023-04-28T18:13:02.742Z,8.00
2023-04-28T18:15:08.938Z,9.25
2023-04-28T18:17:13.982Z,9.35
2023-04-28T18:19:19.019Z,10.02
2023-04-28T18:21:24.093Z,8.18
2023-04-28T18:23:30.531Z,8.10
2023-04-28T18:25:38.331Z,8.05
2023-04-28T18:27:43.599Z,10.18
2023-04-28T18:29:48.650Z,9.50
2023-04-28T18:31:53.781Z,10.48
2023-04-28T18:33:59.648Z,9.90
2023-04-28T18:36:07.840Z,9.00
2023-04-28T18:38:13.513Z,8.38
2023-04-28T18:40:18.956Z,8.68
2023-04-28T18:42:27.475Z,9.43
2023-04-28T18:44:32.573Z,9.07
2023-04-28T18:46:38.038Z,8.82
2023-04-28T18:48:43.469Z,9.18
2023-04-28T18:50:48.999Z,8.43
2023-04-28T18:52:54.219Z,9.30
2023-04-28T18:54:59.776Z,9.55
2023-04-28T18:57:05.179Z,9.20
2023-04-28T18:59:12.947Z,9.10
2023-04-28T19:01:18.399Z,11.18
2023-04-28T19:03:23.894Z,10.20
2023-04-28T19:05:29.596Z,10.35
2023-04-28T19:07:35.207Z,10.25
2023-04-28T19:09:40.256Z,10.48
2023-04-28T19:11:45.285Z,9.82
2023-04-28T19:13:50.464Z,9.73
2023-04-28T19:15:58.362Z,9.40
2023-04-28T19:18:03.715Z,10.40
2023-04-28T19:20:11.515Z,9.98
2023-04-28T19:22:33.111Z,10.15
2023-04-28T19:24:38.422Z,9.55
2023-04-28T19:26:43.669Z,9.80
2023-04-28T19:28:48.678Z,10.10
2023-04-28T19:30:53.723Z,9.30
2023-04-28T19:33:01.523Z,10.18
2023-04-28T19:35:09.463Z,9.60
2023-04-28T19:37:14.521Z,9.30
2023-04-28T19:39:19.588Z,8.55
2023-04-28T19:41:24.617Z,9.43
2023-04-28T19:43:30.008Z,9.38
2023-04-28T19:45:35.173Z,9.40
2023-04-28T19:47:40.436Z,9.70
2023-04-28T19:49:48.472Z,10.90
2023-04-28T19:51:53.756Z,10.38
2023-04-28T19:53:59.738Z,9.70
2023-04-28T19:56:05.933Z,10.25
2023-04-28T19:58:11.408Z,10.13
2023-04-28T20:00:17.821Z,10.05
2023-04-28T20:02:23.141Z,10.60
2023-04-28T20:04:30.649Z,9.60
2023-04-28T20:06:38.867Z,8.15
2023-04-28T20:08:44.141Z,7.10
2023-04-28T20:10:49.560Z,7.15
2023-04-28T20:12:54.560Z,7.53
2023-04-28T20:14:59.708Z,8.88
2023-04-28T20:17:07.527Z,8.52
2023-04-28T20:19:12.662Z,7.82
2023-04-28T20:21:17.668Z,8.35
2023-04-28T20:23:25.265Z,10.38
2023-04-28T20:25:30.762Z,11.40
2023-04-28T20:27:36.748Z,10.68
2023-04-28T20:29:43.143Z,9.98
2023-04-28T20:31:48.521Z,15.50
2023-04-28T20:33:53.710Z,16.33
2023-04-28T20:35:58.820Z,17.80
2023-04-28T20:38:04.125Z,20.02
2023-04-28T20:40:13.771Z,20.77
2023-04-28T20:42:18.817Z,23.27
2023-04-28T20:44:24.047Z,21.58
2023-04-28T20:46:29.075Z,23.45
2023-04-28T20:48:34.372Z,21.63
2023-04-28T20:50:41.327Z,17.80
2023-04-28T20:52:46.469Z,18.40
2023-04-28T20:54:52.537Z,19.30
2023-04-28T20:57:00.478Z,16.33
2023-04-28T20:59:05.516Z,15.45
2023-04-28T21:01:10.913Z,15.05
2023-04-28T21:03:16.505Z,12.63
2023-04-28T21:05:24.137Z,12.40
2023-04-28T21:07:29.194Z,13.10
2023-04-28T21:09:35.977Z,12.60
2023-04-28T21:11:41.011Z,11.90
2023-04-28T21:13:49.112Z,14.50
2023-04-28T21:15:54.249Z,14.90
2023-04-28T21:17:59.364Z,15.45
2023-04-28T21:20:04.858Z,15.43
2023-04-28T21:22:09.924Z,16.38
2023-04-28T21:24:14.989Z,15.50
2023-04-28T21:26:20.829Z,17.85
2023-04-28T21:28:25.895Z,15.20
2023-04-28T21:30:33.828Z,14.45
2023-04-28T21:32:39.105Z,14.63
2023-04-28T21:34:44.286Z,16.95
2023-04-28T21:36:49.322Z,15.10
2023-04-28T21:38:54.460Z,14.90
2023-04-28T21:40:59.742Z,14.10
2023-04-28T21:43:06.083Z,15.82
2023-04-28T21:45:13.017Z,14.98
2023-04-28T21:47:21.164Z,15.50
2023-04-28T21:49:27.137Z,13.48
2023-04-28T21:51:32.949Z,13.70
2023-04-28T21:53:37.981Z,15.10
2023-04-28T21:55:43.101Z,13.45
2023-04-28T21:57:48.500Z,13.70
2023-04-28T21:59:53.534Z,13.80
2023-04-28T22:01:59.735Z,13.93
2023-04-28T22:04:08.922Z,13.77
2023-04-28T22:06:14.300Z,13.30
2023-04-28T22:08:19.814Z,14.65
2023-04-28T22:10:24.954Z,14.88
2023-04-28T22:12:30.144Z,13.45
2023-04-28T22:14:40.873Z,12.48
2023-04-28T22:16:46.510Z,13.98
2023-04-28T22:18:51.923Z,13.00
2023-04-28T22:21:01.210Z,12.70
2023-04-28T22:23:06.254Z,14.00
2023-04-28T22:25:12.460Z,14.20
2023-04-28T22:27:17.744Z,12.82
2023-04-28T22:29:22.754Z,11.63
2023-04-28T22:31:28.611Z,13.40
2023-04-28T22:33:33.666Z,12.18
2023-04-28T22:35:39.032Z,11.15
2023-04-28T22:37:46.986Z,15.88
2023-04-28T22:39:52.567Z,10.23
2023-04-28T22:41:58.715Z,11.57
2023-04-28T22:44:03.769Z,10.05
2023-04-28T22:46:09.356Z,9.05
2023-04-28T22:48:14.737Z,10.65
2023-04-28T22:50:20.783Z,10.27
2023-04-28T22:52:26.461Z,8.98
2023-04-28T22:54:34.570Z,9.45
2023-04-28T22:56:40.061Z,9.20
2023-04-28T22:58:45.102Z,9.40
2023-04-28T23:00:50.359Z,8.10
2023-04-28T23:02:55.755Z,9.50
2023-04-28T23:05:00.845Z,9.35
2023-04-28T23:07:06.296Z,11.95
2023-04-28T23:09:11.349Z,8.77
2023-04-28T23:11:19.410Z,11.35
2023-04-28T23:13:25.392Z,11.20
2023-04-28T23:15:31.109Z,11.18
2023-04-28T23:17:36.458Z,13.75
2023-04-28T23:19:41.603Z,11.93
2023-04-28T23:21:47.578Z,11.20
2023-04-28T23:23:52.763Z,12.15
2023-04-28T23:25:58.085Z,12.57
2023-04-28T23:28:05.672Z,13.20
2023-04-28T23:30:13.000Z,14.63
2023-04-28T23:32:18.505Z,15.93
2023-04-28T23:34:24.189Z,16.13
2023-04-28T23:36:29.492Z,14.95
2023-04-28T23:38:35.146Z,16.13
2023-04-28T23:40:40.171Z,14.07
2023-04-28T23:42:45.218Z,15.80
2023-04-28T23:44:53.397Z,16.80
2023-04-28T23:46:58.859Z,15.57
2023-04-28T23:49:04.012Z,18.33
2023-04-28T23:51:09.157Z,17.83
2023-04-28T23:53:14.169Z,18.75
2023-04-28T23:55:19.496Z,15.18
2023-04-28T23:57:25.097Z,16.08
2023-04-28T23:59:30.731Z,14.70
